sensor_id;sensor_type;location;lat;lon;timestamp;P1;durP1;ratioP1;P2;durP2;ratioP2
18917;SDS011;9591;52.742;13.650;2023-02-25T00:02:10;5.10;;;2.20;;
18917;SDS011;9591;52.742;13.650;2023-02-25T00:04:58;6.17;;;2.67;;
18917;SDS011;9591;52.742;13.650;2023-02-25T00:07:49;4.37;;;2.20;;
18917;SDS011;9591;52.742;13.650;2023-02-25T00:10:35;4.70;;;2.20;;
18917;SDS011;9591;52.742;13.650;2023-02-25T00:13:22;7.77;;;3.23;;
18917;SDS011;9591;52.742;13.650;2023-02-25T00:16:09;5.20;;;2.70;;
18917;SDS011;9591;52.742;13.650;2023-02-25T00:18:57;6.97;;;2.03;;
18917;SDS011;9591;52.742;13.650;2023-02-25T00:21:45;4.40;;;2.20;;
18917;SDS011;9591;52.742;13.650;2023-02-25T00:24:32;2.00;;;1.90;;
18917;SDS011;9591;52.742;13.650;2023-02-25T00:27:18;5.83;;;1.73;;
18917;SDS011;9591;52.742;13.650;2023-02-25T00:30:05;3.83;;;2.20;;
18917;SDS011;9591;52.742;13.650;2023-02-25T00:32:54;3.07;;;2.20;;
18917;SDS011;9591;52.742;13.650;2023-02-25T00:35:41;3.97;;;2.10;;
18917;SDS011;9591;52.742;13.650;2023-02-25T00:38:29;6.33;;;1.70;;
18917;SDS011;9591;52.742;13.650;2023-02-25T00:41:16;1.73;;;1.37;;
18917;SDS011;9591;52.742;13.650;2023-02-25T00:44:05;8.47;;;2.77;;
18917;SDS011;9591;52.742;13.650;2023-02-25T00:46:52;2.57;;;2.00;;
18917;SDS011;9591;52.742;13.650;2023-02-25T00:49:39;6.47;;;2.17;;
18917;SDS011;9591;52.742;13.650;2023-02-25T00:52:25;4.27;;;1.83;;
18917;SDS011;9591;52.742;13.650;2023-02-25T00:55:14;14.13;;;2.30;;
18917;SDS011;9591;52.742;13.650;2023-02-25T00:58:01;2.27;;;1.40;;
18917;SDS011;9591;52.742;13.650;2023-02-25T01:00:48;3.27;;;1.93;;
18917;SDS011;9591;52.742;13.650;2023-02-25T01:03:36;2.93;;;2.10;;
18917;SDS011;9591;52.742;13.650;2023-02-25T01:06:23;5.43;;;2.03;;
18917;SDS011;9591;52.742;13.650;2023-02-25T01:09:10;2.13;;;1.97;;
18917;SDS011;9591;52.742;13.650;2023-02-25T01:12:00;3.43;;;1.97;;
18917;SDS011;9591;52.742;13.650;2023-02-25T01:14:48;1.97;;;1.80;;
18917;SDS011;9591;52.742;13.650;2023-02-25T01:17:35;4.60;;;1.90;;
18917;SDS011;9591;52.742;13.650;2023-02-25T01:20:21;2.17;;;2.07;;
18917;SDS011;9591;52.742;13.650;2023-02-25T01:23:08;2.97;;;2.10;;
18917;SDS011;9591;52.742;13.650;2023-02-25T01:25:55;6.13;;;2.53;;
18917;SDS011;9591;52.742;13.650;2023-02-25T01:28:43;3.67;;;1.90;;
18917;SDS011;9591;52.742;13.650;2023-02-25T01:31:30;2.27;;;1.70;;
18917;SDS011;9591;52.742;13.650;2023-02-25T01:34:18;2.03;;;1.93;;
18917;SDS011;9591;52.742;13.650;2023-02-25T01:37:05;3.17;;;2.10;;
18917;SDS011;9591;52.742;13.650;2023-02-25T01:39:55;5.80;;;1.87;;
18917;SDS011;9591;52.742;13.650;2023-02-25T01:42:42;2.70;;;1.70;;
18917;SDS011;9591;52.742;13.650;2023-02-25T01:45:31;3.83;;;1.93;;
18917;SDS011;9591;52.742;13.650;2023-02-25T01:48:19;2.10;;;2.00;;
18917;SDS011;9591;52.742;13.650;2023-02-25T01:51:08;1.90;;;1.80;;
18917;SDS011;9591;52.742;13.650;2023-02-25T01:53:58;2.17;;;2.03;;
18917;SDS011;9591;52.742;13.650;2023-02-25T01:56:47;2.60;;;1.70;;
18917;SDS011;9591;52.742;13.650;2023-02-25T01:59:38;2.03;;;1.80;;
18917;SDS011;9591;52.742;13.650;2023-02-25T02:02:28;2.10;;;1.60;;
18917;SDS011;9591;52.742;13.650;2023-02-25T02:05:23;2.10;;;1.90;;
18917;SDS011;9591;52.742;13.650;2023-02-25T02:08:22;3.90;;;1.67;;
18917;SDS011;9591;52.742;13.650;2023-02-25T02:11:11;4.10;;;1.90;;
18917;SDS011;9591;52.742;13.650;2023-02-25T02:14:01;3.40;;;2.10;;
18917;SDS011;9591;52.742;13.650;2023-02-25T02:16:56;2.63;;;1.80;;
18917;SDS011;9591;52.742;13.650;2023-02-25T02:20:00;1.30;;;1.30;;
18917;SDS011;9591;52.742;13.650;2023-02-25T02:23:05;1.83;;;1.50;;
18917;SDS011;9591;52.742;13.650;2023-02-25T02:32:57;3.17;;;1.93;;
18917;SDS011;9591;52.742;13.650;2023-02-25T02:35:55;4.90;;;1.77;;
18917;SDS011;9591;52.742;13.650;2023-02-25T02:38:49;2.70;;;1.80;;
18917;SDS011;9591;52.742;13.650;2023-02-25T02:41:40;1.80;;;1.70;;
18917;SDS011;9591;52.742;13.650;2023-02-25T02:44:32;4.57;;;1.97;;
18917;SDS011;9591;52.742;13.650;2023-02-25T02:47:27;2.00;;;1.90;;
18917;SDS011;9591;52.742;13.650;2023-02-25T02:50:22;1.70;;;1.60;;
18917;SDS011;9591;52.742;13.650;2023-02-25T02:53:15;1.87;;;1.77;;
18917;SDS011;9591;52.742;13.650;2023-02-25T02:56:08;1.60;;;1.50;;
18917;SDS011;9591;52.742;13.650;2023-02-25T02:59:02;3.37;;;1.57;;
18917;SDS011;9591;52.742;13.650;2023-02-25T03:01:53;1.43;;;1.43;;
18917;SDS011;9591;52.742;13.650;2023-02-25T03:04:44;2.13;;;1.40;;
18917;SDS011;9591;52.742;13.650;2023-02-25T03:07:38;1.77;;;1.67;;
18917;SDS011;9591;52.742;13.650;2023-02-25T03:10:28;2.53;;;1.30;;
18917;SDS011;9591;52.742;13.650;2023-02-25T03:13:15;1.27;;;1.27;;
18917;SDS011;9591;52.742;13.650;2023-02-25T03:16:01;1.53;;;1.53;;
18917;SDS011;9591;52.742;13.650;2023-02-25T03:18:54;1.87;;;1.77;;
18917;SDS011;9591;52.742;13.650;2023-02-25T03:21:45;1.60;;;1.53;;
18917;SDS011;9591;52.742;13.650;2023-02-25T03:24:38;1.93;;;1.83;;
18917;SDS011;9591;52.742;13.650;2023-02-25T03:27:30;1.67;;;1.57;;
18917;SDS011;9591;52.742;13.650;2023-02-25T03:30:23;2.00;;;1.90;;
18917;SDS011;9591;52.742;13.650;2023-02-25T03:33:17;1.87;;;1.77;;
18917;SDS011;9591;52.742;13.650;2023-02-25T03:36:11;2.10;;;2.00;;
18917;SDS011;9591;52.742;13.650;2023-02-25T03:39:03;1.80;;;1.70;;
18917;SDS011;9591;52.742;13.650;2023-02-25T03:41:58;1.83;;;1.73;;
18917;SDS011;9591;52.742;13.650;2023-02-25T03:44:49;2.07;;;1.97;;
18917;SDS011;9591;52.742;13.650;2023-02-25T03:47:39;2.30;;;2.20;;
18917;SDS011;9591;52.742;13.650;2023-02-25T03:50:29;2.33;;;2.13;;
18917;SDS011;9591;52.742;13.650;2023-02-25T03:53:22;2.90;;;2.30;;
18917;SDS011;9591;52.742;13.650;2023-02-25T03:56:15;4.07;;;2.03;;
18917;SDS011;9591;52.742;13.650;2023-02-25T03:59:04;2.23;;;1.83;;
18917;SDS011;9591;52.742;13.650;2023-02-25T04:01:51;2.27;;;2.17;;
18917;SDS011;9591;52.742;13.650;2023-02-25T04:04:40;2.07;;;1.97;;
18917;SDS011;9591;52.742;13.650;2023-02-25T04:07:26;1.70;;;1.60;;
18917;SDS011;9591;52.742;13.650;2023-02-25T04:10:14;1.57;;;1.47;;
18917;SDS011;9591;52.742;13.650;2023-02-25T04:13:02;1.83;;;1.73;;
18917;SDS011;9591;52.742;13.650;2023-02-25T04:15:51;2.07;;;1.90;;
18917;SDS011;9591;52.742;13.650;2023-02-25T04:18:38;1.93;;;1.83;;
18917;SDS011;9591;52.742;13.650;2023-02-25T04:21:26;1.83;;;1.73;;
18917;SDS011;9591;52.742;13.650;2023-02-25T04:24:14;1.40;;;1.30;;
18917;SDS011;9591;52.742;13.650;2023-02-25T04:27:01;1.60;;;1.50;;
18917;SDS011;9591;52.742;13.650;2023-02-25T04:29:48;1.43;;;1.33;;
18917;SDS011;9591;52.742;13.650;2023-02-25T04:32:36;1.40;;;1.40;;
18917;SDS011;9591;52.742;13.650;2023-02-25T04:35:23;1.70;;;1.60;;
18917;SDS011;9591;52.742;13.650;2023-02-25T04:38:09;1.33;;;1.33;;
18917;SDS011;9591;52.742;13.650;2023-02-25T04:40:56;1.57;;;1.50;;
18917;SDS011;9591;52.742;13.650;2023-02-25T04:43:43;1.90;;;1.80;;
18917;SDS011;9591;52.742;13.650;2023-02-25T04:46:30;1.50;;;1.50;;
18917;SDS011;9591;52.742;13.650;2023-02-25T04:49:20;2.10;;;2.00;;
18917;SDS011;9591;52.742;13.650;2023-02-25T04:52:07;1.40;;;1.40;;
18917;SDS011;9591;52.742;13.650;2023-02-25T04:54:54;1.30;;;1.23;;
18917;SDS011;9591;52.742;13.650;2023-02-25T04:57:41;1.23;;;1.23;;
18917;SDS011;9591;52.742;13.650;2023-02-25T05:00:28;1.60;;;1.50;;
18917;SDS011;9591;52.742;13.650;2023-02-25T05:03:14;1.40;;;1.40;;
18917;SDS011;9591;52.742;13.650;2023-02-25T05:06:03;1.30;;;1.30;;
18917;SDS011;9591;52.742;13.650;2023-02-25T05:08:51;1.73;;;1.73;;
18917;SDS011;9591;52.742;13.650;2023-02-25T05:11:37;1.60;;;1.50;;
18917;SDS011;9591;52.742;13.650;2023-02-25T05:14:24;1.30;;;1.30;;
18917;SDS011;9591;52.742;13.650;2023-02-25T05:17:11;1.60;;;1.50;;
18917;SDS011;9591;52.742;13.650;2023-02-25T05:19:59;1.73;;;1.63;;
18917;SDS011;9591;52.742;13.650;2023-02-25T05:22:47;1.30;;;1.30;;
18917;SDS011;9591;52.742;13.650;2023-02-25T05:25:34;1.73;;;1.73;;
18917;SDS011;9591;52.742;13.650;2023-02-25T05:28:25;1.53;;;1.53;;
18917;SDS011;9591;52.742;13.650;2023-02-25T05:31:12;1.33;;;1.33;;
18917;SDS011;9591;52.742;13.650;2023-02-25T05:33:59;1.60;;;1.50;;
18917;SDS011;9591;52.742;13.650;2023-02-25T05:36:45;3.50;;;1.30;;
18917;SDS011;9591;52.742;13.650;2023-02-25T05:39:33;1.70;;;1.60;;
18917;SDS011;9591;52.742;13.650;2023-02-25T05:42:20;1.73;;;1.63;;
18917;SDS011;9591;52.742;13.650;2023-02-25T05:45:07;1.70;;;1.70;;
18917;SDS011;9591;52.742;13.650;2023-02-25T05:47:55;1.20;;;1.20;;
18917;SDS011;9591;52.742;13.650;2023-02-25T05:50:42;1.40;;;1.40;;
18917;SDS011;9591;52.742;13.650;2023-02-25T05:53:29;1.27;;;1.27;;
18917;SDS011;9591;52.742;13.650;2023-02-25T05:56:18;1.53;;;1.30;;
18917;SDS011;9591;52.742;13.650;2023-02-25T05:59:06;1.20;;;1.20;;
18917;SDS011;9591;52.742;13.650;2023-02-25T06:01:53;1.87;;;1.77;;
18917;SDS011;9591;52.742;13.650;2023-02-25T06:04:40;1.83;;;1.73;;
18917;SDS011;9591;52.742;13.650;2023-02-25T06:07:27;1.30;;;1.30;;
18917;SDS011;9591;52.742;13.650;2023-02-25T06:10:15;1.77;;;1.67;;
18917;SDS011;9591;52.742;13.650;2023-02-25T06:13:03;1.30;;;1.30;;
18917;SDS011;9591;52.742;13.650;2023-02-25T06:15:50;1.33;;;1.33;;
18917;SDS011;9591;52.742;13.650;2023-02-25T06:18:37;1.30;;;1.30;;
18917;SDS011;9591;52.742;13.650;2023-02-25T06:21:24;1.70;;;1.50;;
18917;SDS011;9591;52.742;13.650;2023-02-25T06:24:12;1.40;;;1.40;;
18917;SDS011;9591;52.742;13.650;2023-02-25T06:26:59;1.30;;;1.20;;
18917;SDS011;9591;52.742;13.650;2023-02-25T06:29:47;2.87;;;1.17;;
18917;SDS011;9591;52.742;13.650;2023-02-25T06:32:34;2.10;;;1.63;;
18917;SDS011;9591;52.742;13.650;2023-02-25T06:35:21;1.03;;;1.03;;
18917;SDS011;9591;52.742;13.650;2023-02-25T06:38:08;1.60;;;1.50;;
18917;SDS011;9591;52.742;13.650;2023-02-25T06:40:55;1.40;;;1.40;;
18917;SDS011;9591;52.742;13.650;2023-02-25T06:43:42;1.10;;;1.10;;
18917;SDS011;9591;52.742;13.650;2023-02-25T06:46:30;2.00;;;1.30;;
18917;SDS011;9591;52.742;13.650;2023-02-25T06:49:17;1.20;;;1.20;;
18917;SDS011;9591;52.742;13.650;2023-02-25T06:52:04;1.10;;;1.10;;
18917;SDS011;9591;52.742;13.650;2023-02-25T06:54:51;1.50;;;1.50;;
18917;SDS011;9591;52.742;13.650;2023-02-25T06:57:38;1.27;;;1.23;;
18917;SDS011;9591;52.742;13.650;2023-02-25T07:00:25;1.87;;;1.80;;
18917;SDS011;9591;52.742;13.650;2023-02-25T07:03:13;1.47;;;1.47;;
18917;SDS011;9591;52.742;13.650;2023-02-25T07:06:01;1.47;;;1.47;;
18917;SDS011;9591;52.742;13.650;2023-02-25T07:08:47;1.87;;;1.77;;
18917;SDS011;9591;52.742;13.650;2023-02-25T07:11:34;1.20;;;1.20;;
18917;SDS011;9591;52.742;13.650;2023-02-25T07:14:21;1.30;;;1.30;;
18917;SDS011;9591;52.742;13.650;2023-02-25T07:17:08;1.10;;;1.10;;
18917;SDS011;9591;52.742;13.650;2023-02-25T07:19:56;1.20;;;1.20;;
18917;SDS011;9591;52.742;13.650;2023-02-25T07:22:43;1.10;;;1.10;;
18917;SDS011;9591;52.742;13.650;2023-02-25T07:25:30;1.10;;;1.10;;
18917;SDS011;9591;52.742;13.650;2023-02-25T07:28:17;1.10;;;1.10;;
18917;SDS011;9591;52.742;13.650;2023-02-25T07:31:07;1.70;;;1.70;;
18917;SDS011;9591;52.742;13.650;2023-02-25T07:33:56;1.20;;;1.20;;
18917;SDS011;9591;52.742;13.650;2023-02-25T07:36:48;1.30;;;1.30;;
18917;SDS011;9591;52.742;13.650;2023-02-25T07:39:35;1.13;;;1.13;;
18917;SDS011;9591;52.742;13.650;2023-02-25T07:42:22;1.07;;;1.07;;
18917;SDS011;9591;52.742;13.650;2023-02-25T07:45:15;1.10;;;1.10;;
18917;SDS011;9591;52.742;13.650;2023-02-25T07:48:01;1.03;;;1.03;;
18917;SDS011;9591;52.742;13.650;2023-02-25T07:50:48;1.17;;;1.17;;
18917;SDS011;9591;52.742;13.650;2023-02-25T07:53:36;1.20;;;1.20;;
18917;SDS011;9591;52.742;13.650;2023-02-25T07:56:24;1.47;;;1.47;;
18917;SDS011;9591;52.742;13.650;2023-02-25T07:59:12;1.37;;;1.37;;
18917;SDS011;9591;52.742;13.650;2023-02-25T08:01:59;1.67;;;1.67;;
18917;SDS011;9591;52.742;13.650;2023-02-25T08:04:46;1.00;;;1.00;;
18917;SDS011;9591;52.742;13.650;2023-02-25T08:07:32;1.27;;;1.27;;
18917;SDS011;9591;52.742;13.650;2023-02-25T08:10:21;1.73;;;1.67;;
18917;SDS011;9591;52.742;13.650;2023-02-25T08:13:07;1.10;;;1.10;;
18917;SDS011;9591;52.742;13.650;2023-02-25T08:15:54;1.20;;;1.20;;
18917;SDS011;9591;52.742;13.650;2023-02-25T08:18:41;1.40;;;1.40;;
18917;SDS011;9591;52.742;13.650;2023-02-25T08:21:28;1.27;;;1.27;;
18917;SDS011;9591;52.742;13.650;2023-02-25T08:24:15;1.33;;;1.33;;
18917;SDS011;9591;52.742;13.650;2023-02-25T08:27:06;1.73;;;1.73;;
18917;SDS011;9591;52.742;13.650;2023-02-25T08:29:53;1.53;;;1.43;;
18917;SDS011;9591;52.742;13.650;2023-02-25T08:32:41;1.40;;;1.40;;
18917;SDS011;9591;52.742;13.650;2023-02-25T08:35:27;1.17;;;1.17;;
18917;SDS011;9591;52.742;13.650;2023-02-25T08:38:14;1.30;;;1.30;;
18917;SDS011;9591;52.742;13.650;2023-02-25T08:41:02;1.30;;;1.30;;
18917;SDS011;9591;52.742;13.650;2023-02-25T08:43:52;1.20;;;1.20;;
18917;SDS011;9591;52.742;13.650;2023-02-25T08:46:39;1.30;;;1.30;;
18917;SDS011;9591;52.742;13.650;2023-02-25T08:49:26;1.47;;;1.47;;
18917;SDS011;9591;52.742;13.650;2023-02-25T08:52:13;1.37;;;1.37;;
18917;SDS011;9591;52.742;13.650;2023-02-25T08:55:00;1.50;;;1.40;;
18917;SDS011;9591;52.742;13.650;2023-02-25T08:57:47;1.33;;;1.33;;
18917;SDS011;9591;52.742;13.650;2023-02-25T09:00:36;1.43;;;1.43;;
18917;SDS011;9591;52.742;13.650;2023-02-25T09:03:23;1.30;;;1.30;;
18917;SDS011;9591;52.742;13.650;2023-02-25T09:06:10;1.33;;;1.33;;
18917;SDS011;9591;52.742;13.650;2023-02-25T09:08:57;1.40;;;1.40;;
18917;SDS011;9591;52.742;13.650;2023-02-25T09:11:44;3.40;;;1.37;;
18917;SDS011;9591;52.742;13.650;2023-02-25T09:14:32;1.00;;;1.00;;
18917;SDS011;9591;52.742;13.650;2023-02-25T09:17:20;1.50;;;1.40;;
18917;SDS011;9591;52.742;13.650;2023-02-25T09:20:07;1.20;;;1.20;;
18917;SDS011;9591;52.742;13.650;2023-02-25T09:22:56;1.10;;;1.10;;
18917;SDS011;9591;52.742;13.650;2023-02-25T09:25:43;1.10;;;1.10;;
18917;SDS011;9591;52.742;13.650;2023-02-25T09:28:30;1.10;;;1.10;;
18917;SDS011;9591;52.742;13.650;2023-02-25T09:31:17;1.00;;;1.00;;
18917;SDS011;9591;52.742;13.650;2023-02-25T09:34:07;1.10;;;1.10;;
18917;SDS011;9591;52.742;13.650;2023-02-25T09:36:57;1.27;;;1.20;;
18917;SDS011;9591;52.742;13.650;2023-02-25T09:39:44;2.20;;;1.33;;
18917;SDS011;9591;52.742;13.650;2023-02-25T09:42:42;1.20;;;1.20;;
18917;SDS011;9591;52.742;13.650;2023-02-25T09:45:36;1.17;;;1.17;;
18917;SDS011;9591;52.742;13.650;2023-02-25T09:48:24;1.23;;;1.23;;
18917;SDS011;9591;52.742;13.650;2023-02-25T09:51:17;1.57;;;1.57;;
18917;SDS011;9591;52.742;13.650;2023-02-25T09:54:14;1.10;;;1.10;;
18917;SDS011;9591;52.742;13.650;2023-02-25T09:57:03;1.30;;;1.20;;
18917;SDS011;9591;52.742;13.650;2023-02-25T09:59:52;1.23;;;1.13;;
18917;SDS011;9591;52.742;13.650;2023-02-25T10:02:39;1.43;;;1.43;;
18917;SDS011;9591;52.742;13.650;2023-02-25T10:05:35;1.00;;;1.00;;
18917;SDS011;9591;52.742;13.650;2023-02-25T10:08:31;1.07;;;1.07;;
18917;SDS011;9591;52.742;13.650;2023-02-25T10:11:26;1.20;;;1.20;;
18917;SDS011;9591;52.742;13.650;2023-02-25T10:14:28;0.90;;;0.90;;
18917;SDS011;9591;52.742;13.650;2023-02-25T10:17:35;1.20;;;1.20;;
18917;SDS011;9591;52.742;13.650;2023-02-25T10:23:47;1.30;;;1.20;;
18917;SDS011;9591;52.742;13.650;2023-02-25T10:26:45;1.10;;;1.10;;
18917;SDS011;9591;52.742;13.650;2023-02-25T10:29:35;1.03;;;1.03;;
18917;SDS011;9591;52.742;13.650;2023-02-25T10:32:26;1.37;;;1.37;;
18917;SDS011;9591;52.742;13.650;2023-02-25T10:35:18;1.37;;;1.37;;
18917;SDS011;9591;52.742;13.650;2023-02-25T10:38:07;1.40;;;1.40;;
18917;SDS011;9591;52.742;13.650;2023-02-25T10:40:56;1.10;;;1.10;;
18917;SDS011;9591;52.742;13.650;2023-02-25T10:43:44;1.10;;;1.10;;
18917;SDS011;9591;52.742;13.650;2023-02-25T10:46:32;1.30;;;1.30;;
18917;SDS011;9591;52.742;13.650;2023-02-25T10:49:25;1.20;;;1.20;;
18917;SDS011;9591;52.742;13.650;2023-02-25T10:52:14;1.30;;;1.20;;
18917;SDS011;9591;52.742;13.650;2023-02-25T10:55:02;1.80;;;1.17;;
18917;SDS011;9591;52.742;13.650;2023-02-25T10:57:51;1.10;;;1.10;;
18917;SDS011;9591;52.742;13.650;2023-02-25T11:00:38;1.10;;;1.10;;
18917;SDS011;9591;52.742;13.650;2023-02-25T11:03:30;0.80;;;0.80;;
18917;SDS011;9591;52.742;13.650;2023-02-25T11:06:21;1.17;;;1.17;;
18917;SDS011;9591;52.742;13.650;2023-02-25T11:09:26;1.40;;;1.30;;
18917;SDS011;9591;52.742;13.650;2023-02-25T11:12:15;1.07;;;1.07;;
18917;SDS011;9591;52.742;13.650;2023-02-25T11:15:17;1.87;;;1.77;;
18917;SDS011;9591;52.742;13.650;2023-02-25T11:18:29;1.30;;;1.30;;
18917;SDS011;9591;52.742;13.650;2023-02-25T11:21:16;1.30;;;1.30;;
18917;SDS011;9591;52.742;13.650;2023-02-25T11:24:15;1.37;;;1.37;;
18917;SDS011;9591;52.742;13.650;2023-02-25T11:27:05;1.13;;;1.13;;
18917;SDS011;9591;52.742;13.650;2023-02-25T11:29:53;1.17;;;1.07;;
18917;SDS011;9591;52.742;13.650;2023-02-25T11:32:49;1.23;;;1.23;;
18917;SDS011;9591;52.742;13.650;2023-02-25T11:35:39;1.27;;;1.27;;
18917;SDS011;9591;52.742;13.650;2023-02-25T11:38:27;1.00;;;1.00;;
18917;SDS011;9591;52.742;13.650;2023-02-25T11:41:19;1.17;;;1.13;;
18917;SDS011;9591;52.742;13.650;2023-02-25T11:44:09;1.67;;;1.57;;
18917;SDS011;9591;52.742;13.650;2023-02-25T11:47:05;1.40;;;1.40;;
18917;SDS011;9591;52.742;13.650;2023-02-25T11:50:07;1.37;;;1.27;;
18917;SDS011;9591;52.742;13.650;2023-02-25T11:53:03;1.30;;;1.30;;
18917;SDS011;9591;52.742;13.650;2023-02-25T11:56:03;0.97;;;0.97;;
18917;SDS011;9591;52.742;13.650;2023-02-25T11:59:03;1.13;;;1.13;;
18917;SDS011;9591;52.742;13.650;2023-02-25T12:02:01;1.03;;;1.03;;
18917;SDS011;9591;52.742;13.650;2023-02-25T12:05:21;1.20;;;1.17;;
18917;SDS011;9591;52.742;13.650;2023-02-25T12:15:17;1.30;;;1.30;;
18917;SDS011;9591;52.742;13.650;2023-02-25T12:18:16;2.77;;;2.57;;
18917;SDS011;9591;52.742;13.650;2023-02-25T12:21:37;1.30;;;1.30;;
18917;SDS011;9591;52.742;13.650;2023-02-25T12:25:10;1.07;;;1.07;;
18917;SDS011;9591;52.742;13.650;2023-02-25T12:31:40;1.47;;;1.47;;
18917;SDS011;9591;52.742;13.650;2023-02-25T12:35:07;1.50;;;1.50;;
18917;SDS011;9591;52.742;13.650;2023-02-25T12:41:37;1.33;;;1.33;;
18917;SDS011;9591;52.742;13.650;2023-02-25T12:55:03;1.20;;;1.20;;
18917;SDS011;9591;52.742;13.650;2023-02-25T12:58:12;3.07;;;1.23;;
18917;SDS011;9591;52.742;13.650;2023-02-25T13:01:13;1.50;;;1.40;;
18917;SDS011;9591;52.742;13.650;2023-02-25T13:07:29;1.17;;;1.17;;
18917;SDS011;9591;52.742;13.650;2023-02-25T13:10:38;2.23;;;2.13;;
18917;SDS011;9591;52.742;13.650;2023-02-25T13:16:54;1.60;;;1.60;;
18917;SDS011;9591;52.742;13.650;2023-02-25T13:19:55;1.83;;;1.37;;
18917;SDS011;9591;52.742;13.650;2023-02-25T13:23:07;1.40;;;1.30;;
18917;SDS011;9591;52.742;13.650;2023-02-25T13:26:09;1.33;;;1.30;;
18917;SDS011;9591;52.742;13.650;2023-02-25T13:29:20;2.20;;;1.73;;
18917;SDS011;9591;52.742;13.650;2023-02-25T13:32:20;1.57;;;1.50;;
18917;SDS011;9591;52.742;13.650;2023-02-25T13:35:17;1.40;;;1.40;;
18917;SDS011;9591;52.742;13.650;2023-02-25T13:38:16;1.43;;;1.33;;
18917;SDS011;9591;52.742;13.650;2023-02-25T13:41:17;1.10;;;1.10;;
18917;SDS011;9591;52.742;13.650;2023-02-25T13:44:31;1.23;;;1.23;;
18917;SDS011;9591;52.742;13.650;2023-02-25T13:47:30;1.17;;;1.17;;
18917;SDS011;9591;52.742;13.650;2023-02-25T13:50:36;1.23;;;1.23;;
18917;SDS011;9591;52.742;13.650;2023-02-25T13:53:41;1.17;;;1.17;;
18917;SDS011;9591;52.742;13.650;2023-02-25T13:56:45;1.53;;;1.53;;
18917;SDS011;9591;52.742;13.650;2023-02-25T14:06:34;1.97;;;1.87;;
18917;SDS011;9591;52.742;13.650;2023-02-25T14:09:34;1.73;;;1.63;;
18917;SDS011;9591;52.742;13.650;2023-02-25T14:12:36;1.47;;;1.47;;
18917;SDS011;9591;52.742;13.650;2023-02-25T14:15:34;1.30;;;1.30;;
18917;SDS011;9591;52.742;13.650;2023-02-25T14:18:37;1.30;;;1.30;;
18917;SDS011;9591;52.742;13.650;2023-02-25T14:21:44;3.03;;;1.67;;
18917;SDS011;9591;52.742;13.650;2023-02-25T14:24:39;1.50;;;1.40;;
18917;SDS011;9591;52.742;13.650;2023-02-25T14:27:36;1.27;;;1.27;;
18917;SDS011;9591;52.742;13.650;2023-02-25T14:30:33;2.13;;;1.73;;
18917;SDS011;9591;52.742;13.650;2023-02-25T14:33:39;1.70;;;1.40;;
18917;SDS011;9591;52.742;13.650;2023-02-25T14:36:52;1.90;;;1.80;;
18917;SDS011;9591;52.742;13.650;2023-02-25T14:39:53;1.67;;;1.57;;
18917;SDS011;9591;52.742;13.650;2023-02-25T14:46:27;1.40;;;1.40;;
18917;SDS011;9591;52.742;13.650;2023-02-25T14:49:18;1.73;;;1.37;;
18917;SDS011;9591;52.742;13.650;2023-02-25T14:52:15;1.53;;;1.30;;
18917;SDS011;9591;52.742;13.650;2023-02-25T14:55:40;1.43;;;1.43;;
18917;SDS011;9591;52.742;13.650;2023-02-25T14:58:45;1.77;;;1.73;;
18917;SDS011;9591;52.742;13.650;2023-02-25T15:11:41;2.57;;;1.63;;
18917;SDS011;9591;52.742;13.650;2023-02-25T15:15:00;1.20;;;1.20;;
18917;SDS011;9591;52.742;13.650;2023-02-25T15:21:38;1.37;;;1.37;;
18917;SDS011;9591;52.742;13.650;2023-02-25T15:24:36;1.63;;;1.53;;
18917;SDS011;9591;52.742;13.650;2023-02-25T15:34:28;1.40;;;1.40;;
18917;SDS011;9591;52.742;13.650;2023-02-25T15:37:27;1.73;;;1.67;;
18917;SDS011;9591;52.742;13.650;2023-02-25T15:43:41;2.00;;;1.90;;
18917;SDS011;9591;52.742;13.650;2023-02-25T15:46:41;1.73;;;1.73;;
18917;SDS011;9591;52.742;13.650;2023-02-25T15:49:32;2.23;;;1.40;;
18917;SDS011;9591;52.742;13.650;2023-02-25T15:55:42;1.53;;;1.43;;
18917;SDS011;9591;52.742;13.650;2023-02-25T15:58:49;3.50;;;1.20;;
18917;SDS011;9591;52.742;13.650;2023-02-25T16:01:38;1.30;;;1.30;;
18917;SDS011;9591;52.742;13.650;2023-02-25T16:04:47;1.40;;;1.40;;
18917;SDS011;9591;52.742;13.650;2023-02-25T16:07:34;1.40;;;1.40;;
18917;SDS011;9591;52.742;13.650;2023-02-25T16:10:25;1.40;;;1.30;;
18917;SDS011;9591;52.742;13.650;2023-02-25T16:13:20;1.83;;;1.73;;
18917;SDS011;9591;52.742;13.650;2023-02-25T16:16:12;1.67;;;1.57;;
18917;SDS011;9591;52.742;13.650;2023-02-25T16:19:01;1.83;;;1.77;;
18917;SDS011;9591;52.742;13.650;2023-02-25T16:21:53;1.60;;;1.60;;
18917;SDS011;9591;52.742;13.650;2023-02-25T16:24:44;1.30;;;1.20;;
18917;SDS011;9591;52.742;13.650;2023-02-25T16:27:37;1.50;;;1.50;;
18917;SDS011;9591;52.742;13.650;2023-02-25T16:30:34;1.67;;;1.57;;
18917;SDS011;9591;52.742;13.650;2023-02-25T16:33:28;2.57;;;1.67;;
18917;SDS011;9591;52.742;13.650;2023-02-25T16:36:28;1.90;;;1.80;;
18917;SDS011;9591;52.742;13.650;2023-02-25T16:39:24;1.47;;;1.47;;
18917;SDS011;9591;52.742;13.650;2023-02-25T16:42:13;1.30;;;1.30;;
18917;SDS011;9591;52.742;13.650;2023-02-25T16:45:03;1.53;;;1.53;;
18917;SDS011;9591;52.742;13.650;2023-02-25T16:47:52;1.43;;;1.43;;
18917;SDS011;9591;52.742;13.650;2023-02-25T16:50:43;1.90;;;1.70;;
18917;SDS011;9591;52.742;13.650;2023-02-25T16:53:32;2.63;;;1.87;;
18917;SDS011;9591;52.742;13.650;2023-02-25T16:56:21;1.47;;;1.40;;
18917;SDS011;9591;52.742;13.650;2023-02-25T16:59:14;1.47;;;1.47;;
18917;SDS011;9591;52.742;13.650;2023-02-25T17:02:18;1.30;;;1.30;;
18917;SDS011;9591;52.742;13.650;2023-02-25T17:05:09;2.10;;;2.00;;
18917;SDS011;9591;52.742;13.650;2023-02-25T17:08:12;1.97;;;1.87;;
18917;SDS011;9591;52.742;13.650;2023-02-25T17:11:00;1.77;;;1.50;;
18917;SDS011;9591;52.742;13.650;2023-02-25T17:13:52;2.20;;;2.10;;
18917;SDS011;9591;52.742;13.650;2023-02-25T17:16:40;1.50;;;1.40;;
18917;SDS011;9591;52.742;13.650;2023-02-25T17:19:28;1.63;;;1.53;;
18917;SDS011;9591;52.742;13.650;2023-02-25T17:22:17;2.63;;;1.90;;
18917;SDS011;9591;52.742;13.650;2023-02-25T17:25:08;1.93;;;1.83;;
18917;SDS011;9591;52.742;13.650;2023-02-25T17:27:59;2.57;;;2.13;;
18917;SDS011;9591;52.742;13.650;2023-02-25T17:30:48;3.80;;;1.80;;
18917;SDS011;9591;52.742;13.650;2023-02-25T17:33:44;1.70;;;1.60;;
18917;SDS011;9591;52.742;13.650;2023-02-25T17:36:33;1.17;;;1.13;;
18917;SDS011;9591;52.742;13.650;2023-02-25T17:39:23;1.70;;;1.70;;
18917;SDS011;9591;52.742;13.650;2023-02-25T17:42:26;1.70;;;1.57;;
18917;SDS011;9591;52.742;13.650;2023-02-25T17:48:28;1.80;;;1.70;;
18917;SDS011;9591;52.742;13.650;2023-02-25T17:51:17;2.13;;;2.03;;
18917;SDS011;9591;52.742;13.650;2023-02-25T17:54:13;2.70;;;1.97;;
18917;SDS011;9591;52.742;13.650;2023-02-25T17:57:04;2.00;;;1.90;;
18917;SDS011;9591;52.742;13.650;2023-02-25T17:59:54;2.00;;;1.90;;
18917;SDS011;9591;52.742;13.650;2023-02-25T18:02:44;1.47;;;1.47;;
18917;SDS011;9591;52.742;13.650;2023-02-25T18:05:32;1.80;;;1.70;;
18917;SDS011;9591;52.742;13.650;2023-02-25T18:08:48;1.63;;;1.50;;
18917;SDS011;9591;52.742;13.650;2023-02-25T18:11:37;1.70;;;1.70;;
18917;SDS011;9591;52.742;13.650;2023-02-25T18:14:27;2.00;;;1.90;;
18917;SDS011;9591;52.742;13.650;2023-02-25T18:17:21;2.20;;;2.00;;
18917;SDS011;9591;52.742;13.650;2023-02-25T18:20:24;1.97;;;1.87;;
18917;SDS011;9591;52.742;13.650;2023-02-25T18:23:17;2.20;;;2.03;;
18917;SDS011;9591;52.742;13.650;2023-02-25T18:26:09;2.70;;;2.50;;
18917;SDS011;9591;52.742;13.650;2023-02-25T18:28:57;3.63;;;1.80;;
18917;SDS011;9591;52.742;13.650;2023-02-25T18:31:44;2.87;;;1.80;;
18917;SDS011;9591;52.742;13.650;2023-02-25T18:34:30;1.73;;;1.63;;
18917;SDS011;9591;52.742;13.650;2023-02-25T18:37:17;1.97;;;1.87;;
18917;SDS011;9591;52.742;13.650;2023-02-25T18:40:09;2.40;;;2.20;;